createdAt,value
2018-12-12T00:00:04.195Z,3.27777777778
2018-12-12T00:00:16.588Z,3.22222222222
2018-12-12T00:00:28.972Z,3.27777777778
2018-12-12T00:00:41.358Z,3.27777777778
2018-12-12T00:00:53.746Z,3.27777777778
2018-12-12T00:01:06.121Z,3.27777777778
2018-12-12T00:01:18.496Z,3.27777777778
2018-12-12T00:01:30.878Z,3.27777777778
2018-12-12T00:01:43.254Z,3.27777777778
2018-12-12T00:01:55.638Z,3.27777777778
2018-12-12T00:02:08.020Z,3.27777777778
2018-12-12T00:02:20.530Z,3.27777777778
2018-12-12T00:02:33.047Z,3.27777777778
2018-12-12T00:02:45.429Z,3.27777777778
2018-12-12T00:02:57.819Z,3.27777777778
2018-12-12T00:03:10.199Z,3.27777777778
2018-12-12T00:03:22.585Z,3.27777777778
2018-12-12T00:03:34.963Z,3.27777777778
2018-12-12T00:03:47.318Z,3.27777777778
2018-12-12T00:03:59.688Z,3.27777777778
2018-12-12T00:04:12.054Z,3.27777777778
2018-12-12T00:04:24.410Z,3.27777777778
2018-12-12T00:04:36.773Z,3.27777777778
2018-12-12T00:04:49.325Z,3.27777777778
2018-12-12T00:05:01.710Z,3.27777777778
2018-12-12T00:05:14.162Z,3.27777777778
2018-12-12T00:05:26.697Z,3.27777777778
2018-12-12T00:05:39.081Z,3.27777777778
2018-12-12T00:05:51.453Z,3.27777777778
2018-12-12T00:06:04.726Z,3.27777777778
2018-12-12T00:06:17.086Z,3.27777777778
2018-12-12T00:06:29.461Z,3.27777777778
2018-12-12T00:06:41.832Z,3.27777777778
2018-12-12T00:06:54.216Z,3.27777777778
2018-12-12T00:07:06.568Z,3.27777777778
2018-12-12T00:07:18.954Z,3.27777777778
2018-12-12T00:07:31.337Z,3.27777777778
2018-12-12T00:07:43.768Z,3.27777777778
2018-12-12T00:07:56.138Z,3.27777777778
2018-12-12T00:08:08.513Z,3.27777777778
2018-12-12T00:08:20.882Z,3.27777777778
2018-12-12T00:08:33.308Z,3.27777777778
2018-12-12T00:08:45.715Z,3.27777777778
2018-12-12T00:08:58.098Z,3.27777777778
2018-12-12T00:09:10.490Z,3.33333333333
2018-12-12T00:09:22.892Z,3.27777777778
2018-12-12T00:09:35.260Z,3.33333333333
2018-12-12T00:09:47.639Z,3.27777777778
2018-12-12T00:10:00.265Z,3.27777777778
2018-12-12T00:10:12.781Z,3.27777777778
2018-12-12T00:10:25.173Z,3.27777777778
2018-12-12T00:10:37.546Z,3.27777777778
2018-12-12T00:10:50.036Z,3.27777777778
2018-12-12T00:11:02.403Z,3.27777777778
2018-12-12T00:11:14.783Z,3.33333333333
2018-12-12T00:11:27.154Z,3.27777777778
2018-12-12T00:11:39.516Z,3.33333333333
2018-12-12T00:11:51.880Z,3.33333333333
2018-12-12T00:12:04.266Z,3.33333333333
2018-12-12T00:12:16.630Z,3.27777777778
2018-12-12T00:12:29.061Z,3.33333333333
2018-12-12T00:12:41.430Z,3.27777777778
2018-12-12T00:12:53.795Z,3.33333333333
2018-12-12T00:13:06.243Z,3.33333333333
2018-12-12T00:13:18.617Z,3.33333333333
2018-12-12T00:13:31.014Z,3.33333333333
2018-12-12T00:13:43.371Z,3.33333333333
2018-12-12T00:13:55.739Z,3.33333333333
2018-12-12T00:14:08.102Z,3.33333333333
2018-12-12T00:14:20.501Z,3.33333333333
2018-12-12T00:14:32.869Z,3.33333333333
2018-12-12T00:14:45.244Z,3.33333333333
2018-12-12T00:14:57.680Z,3.33333333333
2018-12-12T00:15:10.042Z,3.27777777778
2018-12-12T00:15:22.415Z,3.33333333333
2018-12-12T00:15:34.785Z,3.33333333333
2018-12-12T00:15:48.578Z,3.33333333333
2018-12-12T00:16:00.960Z,3.33333333333
2018-12-12T00:16:13.390Z,3.33333333333
2018-12-12T00:16:25.782Z,3.33333333333
2018-12-12T00:16:38.140Z,3.33333333333
2018-12-12T00:16:50.539Z,3.33333333333
2018-12-12T00:17:02.901Z,3.33333333333
2018-12-12T00:17:15.259Z,3.27777777778
2018-12-12T00:17:27.625Z,3.33333333333
2018-12-12T00:17:40.003Z,3.33333333333
2018-12-12T00:17:52.510Z,3.33333333333
2018-12-12T00:18:04.916Z,3.33333333333
2018-12-12T00:18:17.283Z,3.33333333333
2018-12-12T00:18:29.717Z,3.33333333333
2018-12-12T00:18:42.068Z,3.33333333333
2018-12-12T00:18:54.546Z,3.33333333333
2018-12-12T00:19:06.906Z,3.33333333333
2018-12-12T00:19:19.276Z,3.33333333333
2018-12-12T00:19:31.633Z,3.33333333333
2018-12-12T00:19:44.067Z,3.33333333333
2018-12-12T00:19:56.428Z,3.33333333333
2018-12-12T00:20:08.804Z,3.33333333333
2018-12-12T00:20:21.190Z,3.33333333333
2018-12-12T00:20:33.580Z,3.33333333333
2018-12-12T00:20:46.127Z,3.33333333333
2018-12-12T00:20:58.499Z,3.33333333333
2018-12-12T00:21:10.945Z,3.33333333333
2018-12-12T00:21:23.333Z,3.33333333333
2018-12-12T00:21:35.679Z,3.33333333333
2018-12-12T00:21:48.047Z,3.33333333333
2018-12-12T00:22:00.418Z,3.33333333333
2018-12-12T00:22:12.849Z,3.33333333333
2018-12-12T00:22:25.255Z,3.33333333333
2018-12-12T00:22:37.633Z,3.33333333333
2018-12-12T00:22:50.324Z,3.33333333333
2018-12-12T00:23:02.702Z,3.33333333333
2018-12-12T00:23:15.071Z,3.38888888889
2018-12-12T00:23:27.431Z,3.33333333333
2018-12-12T00:23:39.810Z,3.33333333333
2018-12-12T00:23:52.173Z,3.33333333333
2018-12-12T00:24:04.538Z,3.33333333333
2018-12-12T00:24:16.895Z,3.33333333333
2018-12-12T00:24:29.267Z,3.33333333333
2018-12-12T00:24:41.645Z,3.33333333333
2018-12-12T00:24:54.007Z,3.33333333333
2018-12-12T00:25:06.431Z,3.33333333333
2018-12-12T00:25:18.872Z,3.33333333333
2018-12-12T00:25:31.261Z,3.33333333333
2018-12-12T00:25:43.628Z,3.33333333333
2018-12-12T00:25:55.986Z,3.33333333333
2018-12-12T00:26:08.356Z,3.33333333333
2018-12-12T00:26:20.869Z,3.33333333333
2018-12-12T00:26:33.242Z,3.33333333333
2018-12-12T00:26:45.595Z,3.33333333333
2018-12-12T00:26:58.017Z,3.33333333333
2018-12-12T00:27:10.377Z,3.33333333333
2018-12-12T00:27:22.806Z,3.33333333333
2018-12-12T00:27:35.227Z,3.33333333333
2018-12-12T00:27:47.586Z,3.33333333333
2018-12-12T00:27:59.966Z,3.33333333333
2018-12-12T00:28:12.369Z,3.33333333333
2018-12-12T00:28:24.756Z,3.33333333333
2018-12-12T00:28:37.116Z,3.33333333333
2018-12-12T00:28:49.471Z,3.33333333333
2018-12-12T00:29:01.901Z,3.33333333333
2018-12-12T00:29:14.335Z,3.33333333333
2018-12-12T00:29:26.697Z,3.33333333333
2018-12-12T00:29:39.058Z,3.33333333333
2018-12-12T00:29:51.576Z,3.33333333333
2018-12-12T00:30:03.947Z,3.27777777778
2018-12-12T00:30:16.314Z,3.33333333333
2018-12-12T00:30:28.712Z,3.33333333333
2018-12-12T00:30:41.384Z,3.33333333333
2018-12-12T00:30:53.759Z,3.33333333333
2018-12-12T00:31:06.133Z,3.33333333333
2018-12-12T00:31:18.510Z,3.33333333333
2018-12-12T00:31:30.905Z,3.33333333333
2018-12-12T00:31:43.277Z,3.33333333333
2018-12-12T00:31:55.644Z,3.33333333333
2018-12-12T00:32:08.024Z,3.33333333333
2018-12-12T00:32:20.397Z,3.33333333333
2018-12-12T00:32:32.759Z,3.33333333333
2018-12-12T00:32:45.102Z,3.33333333333
2018-12-12T00:32:57.469Z,3.38888888889
2018-12-12T00:33:09.843Z,3.38888888889
2018-12-12T00:33:22.260Z,3.38888888889
2018-12-12T00:33:34.636Z,3.33333333333
2018-12-12T00:33:47.080Z,3.33333333333
2018-12-12T00:33:59.435Z,3.38888888889
2018-12-12T00:34:11.796Z,3.33333333333
2018-12-12T00:34:24.178Z,3.33333333333
2018-12-12T00:34:36.540Z,3.33333333333
2018-12-12T00:34:48.989Z,3.33333333333
2018-12-12T00:35:01.384Z,3.33333333333
2018-12-12T00:35:13.769Z,3.33333333333
2018-12-12T00:35:26.148Z,3.33333333333
2018-12-12T00:35:38.516Z,3.38888888889
2018-12-12T00:35:52.382Z,3.33333333333
2018-12-12T00:36:04.773Z,3.33333333333
2018-12-12T00:36:17.175Z,3.33333333333
2018-12-12T00:36:29.544Z,3.33333333333
2018-12-12T00:36:41.915Z,3.33333333333
2018-12-12T00:36:54.293Z,3.33333333333
2018-12-12T00:37:06.683Z,3.38888888889
2018-12-12T00:37:19.210Z,3.38888888889
2018-12-12T00:37:31.587Z,3.33333333333
2018-12-12T00:37:43.966Z,3.33333333333
2018-12-12T00:37:56.335Z,3.38888888889
2018-12-12T00:38:08.709Z,3.38888888889
2018-12-12T00:38:21.069Z,3.38888888889
2018-12-12T00:38:33.415Z,3.38888888889
2018-12-12T00:38:45.791Z,3.38888888889
2018-12-12T00:38:58.149Z,3.38888888889
2018-12-12T00:39:10.521Z,3.38888888889
2018-12-12T00:39:22.945Z,3.38888888889
2018-12-12T00:39:35.305Z,3.38888888889
2018-12-12T00:39:47.826Z,3.38888888889
2018-12-12T00:40:00.251Z,3.33333333333
2018-12-12T00:40:12.617Z,3.38888888889
2018-12-12T00:40:24.973Z,3.38888888889
2018-12-12T00:40:37.333Z,3.38888888889
2018-12-12T00:40:49.714Z,3.38888888889
2018-12-12T00:41:02.199Z,3.38888888889
2018-12-12T00:41:14.654Z,3.44444444444
2018-12-12T00:41:27.017Z,3.44444444444
2018-12-12T00:41:39.367Z,3.38888888889
2018-12-12T00:41:51.739Z,3.38888888889
2018-12-12T00:42:04.118Z,3.38888888889
2018-12-12T00:42:17.845Z,3.38888888889
2018-12-12T00:42:30.276Z,3.44444444444
2018-12-12T00:42:42.633Z,3.38888888889
2018-12-12T00:42:55.001Z,3.38888888889
2018-12-12T00:43:07.358Z,3.38888888889
2018-12-12T00:43:19.795Z,3.38888888889
2018-12-12T00:43:32.174Z,3.38888888889
2018-12-12T00:43:44.611Z,3.44444444444
2018-12-12T00:43:56.966Z,3.38888888889
2018-12-12T00:44:09.433Z,3.38888888889
2018-12-12T00:44:21.804Z,3.38888888889
2018-12-12T00:44:34.412Z,3.38888888889
2018-12-12T00:44:46.771Z,3.38888888889
2018-12-12T00:44:59.142Z,3.38888888889
2018-12-12T00:45:11.503Z,3.38888888889
2018-12-12T00:45:23.883Z,3.38888888889
2018-12-12T00:45:36.249Z,3.38888888889
2018-12-12T00:45:48.606Z,3.38888888889
2018-12-12T00:46:00.974Z,3.38888888889
2018-12-12T00:46:13.332Z,3.44444444444
2018-12-12T00:46:25.701Z,3.44444444444
2018-12-12T00:46:38.117Z,3.38888888889
2018-12-12T00:46:50.476Z,3.38888888889
2018-12-12T00:47:02.855Z,3.38888888889
2018-12-12T00:47:15.293Z,3.44444444444
2018-12-12T00:47:27.667Z,3.44444444444
2018-12-12T00:47:40.065Z,3.38888888889
2018-12-12T00:47:52.432Z,3.38888888889
2018-12-12T00:48:04.804Z,3.44444444444
2018-12-12T00:48:17.162Z,3.38888888889
2018-12-12T00:48:29.533Z,3.44444444444
2018-12-12T00:48:41.919Z,3.38888888889
2018-12-12T00:48:54.284Z,3.44444444444
2018-12-12T00:49:06.655Z,3.38888888889
2018-12-12T00:49:19.017Z,3.44444444444
2018-12-12T00:49:31.460Z,3.38888888889
2018-12-12T00:49:43.821Z,3.44444444444
2018-12-12T00:49:56.185Z,3.38888888889
2018-12-12T00:50:08.682Z,3.44444444444
2018-12-12T00:50:21.043Z,3.44444444444
2018-12-12T00:50:33.479Z,3.38888888889
2018-12-12T00:50:45.910Z,3.38888888889
2018-12-12T00:50:58.286Z,3.44444444444
2018-12-12T00:51:10.667Z,3.38888888889
2018-12-12T00:51:23.048Z,3.44444444444
2018-12-12T00:51:35.420Z,3.44444444444
2018-12-12T00:51:47.783Z,3.44444444444
2018-12-12T00:52:00.301Z,3.44444444444
2018-12-12T00:52:12.695Z,3.44444444444
2018-12-12T00:52:25.053Z,3.38888888889
2018-12-12T00:52:37.426Z,3.44444444444
2018-12-12T00:52:49.794Z,3.38888888889
2018-12-12T00:53:02.219Z,3.44444444444
2018-12-12T00:53:14.604Z,3.44444444444
2018-12-12T00:53:26.985Z,3.38888888889
2018-12-12T00:53:39.345Z,3.44444444444
2018-12-12T00:53:51.717Z,3.44444444444
2018-12-12T00:54:04.070Z,3.44444444444
2018-12-12T00:54:16.677Z,3.38888888889
2018-12-12T00:54:29.031Z,3.44444444444
2018-12-12T00:54:41.400Z,3.38888888889
2018-12-12T00:54:53.941Z,3.44444444444
2018-12-12T00:55:06.296Z,3.44444444444
2018-12-12T00:55:18.652Z,3.38888888889
2018-12-12T00:55:31.011Z,3.44444444444
2018-12-12T00:55:43.368Z,3.44444444444
2018-12-12T00:55:56.653Z,3.44444444444
2018-12-12T00:56:09.037Z,3.38888888889
2018-12-12T00:56:21.427Z,3.44444444444
2018-12-12T00:56:33.794Z,3.44444444444
2018-12-12T00:56:46.319Z,3.44444444444
2018-12-12T00:56:58.670Z,3.44444444444
2018-12-12T00:57:11.029Z,3.44444444444
2018-12-12T00:57:23.422Z,3.44444444444
2018-12-12T00:57:35.783Z,3.44444444444
2018-12-12T00:57:48.143Z,3.38888888889
2018-12-12T00:58:00.507Z,3.44444444444
2018-12-12T00:58:12.881Z,3.44444444444
2018-12-12T00:58:25.338Z,3.38888888889
2018-12-12T00:58:37.773Z,3.44444444444
2018-12-12T00:58:50.169Z,3.44444444444
2018-12-12T00:59:02.538Z,3.44444444444
2018-12-12T00:59:14.926Z,3.44444444444
2018-12-12T00:59:27.287Z,3.44444444444
2018-12-12T00:59:39.656Z,3.44444444444
2018-12-12T00:59:52.014Z,3.38888888889
2018-12-12T01:00:04.437Z,3.44444444444
2018-12-12T01:00:16.834Z,3.44444444444
2018-12-12T01:00:29.226Z,3.44444444444
2018-12-12T01:00:41.593Z,3.44444444444
2018-12-12T01:00:53.956Z,3.44444444444
2018-12-12T01:01:06.337Z,3.44444444444
2018-12-12T01:01:18.694Z,3.44444444444
2018-12-12T01:01:31.082Z,3.44444444444
2018-12-12T01:01:43.458Z,3.44444444444
2018-12-12T01:01:55.841Z,3.44444444444
2018-12-12T01:02:08.291Z,3.44444444444
2018-12-12T01:02:20.665Z,3.44444444444
2018-12-12T01:02:33.163Z,3.44444444444
2018-12-12T01:02:45.540Z,3.44444444444
2018-12-12T01:02:57.924Z,3.44444444444
2018-12-12T01:03:10.295Z,3.44444444444
2018-12-12T01:03:22.647Z,3.44444444444
2018-12-12T01:03:35.038Z,3.44444444444
2018-12-12T01:03:47.394Z,3.44444444444
2018-12-12T01:03:59.771Z,3.44444444444
2018-12-12T01:04:12.225Z,3.44444444444
2018-12-12T01:04:24.586Z,3.44444444444
2018-12-12T01:04:36.968Z,3.44444444444
2018-12-12T01:04:49.348Z,3.44444444444
2018-12-12T01:05:01.716Z,3.44444444444
2018-12-12T01:05:14.114Z,3.44444444444
2018-12-12T01:05:26.790Z,3.44444444444
2018-12-12T01:05:39.156Z,3.44444444444
2018-12-12T01:05:51.539Z,3.44444444444
2018-12-12T01:06:03.906Z,3.44444444444
2018-12-12T01:06:16.289Z,3.44444444444
2018-12-12T01:06:28.720Z,3.44444444444
2018-12-12T01:06:41.075Z,3.44444444444
2018-12-12T01:06:53.437Z,3.44444444444
2018-12-12T01:07:05.792Z,3.44444444444
2018-12-12T01:07:18.150Z,3.44444444444
2018-12-12T01:07:30.797Z,3.44444444444
2018-12-12T01:07:43.191Z,3.44444444444
2018-12-12T01:07:55.547Z,3.44444444444
2018-12-12T01:08:07.916Z,3.44444444444
2018-12-12T01:08:20.279Z,3.44444444444
2018-12-12T01:08:32.663Z,3.44444444444
2018-12-12T01:08:45.027Z,3.44444444444
2018-12-12T01:08:57.402Z,3.44444444444
2018-12-12T01:09:09.830Z,3.44444444444
2018-12-12T01:09:22.197Z,3.44444444444
2018-12-12T01:09:34.569Z,3.5
2018-12-12T01:09:46.956Z,3.5
2018-12-12T01:09:59.509Z,3.5
2018-12-12T01:10:11.891Z,3.5
2018-12-12T01:10:24.271Z,3.44444444444
2018-12-12T01:10:36.639Z,3.44444444444
2018-12-12T01:10:49.010Z,3.44444444444
2018-12-12T01:11:01.386Z,3.5
2018-12-12T01:11:13.770Z,3.44444444444
2018-12-12T01:11:26.134Z,3.44444444444
2018-12-12T01:11:38.496Z,3.44444444444
2018-12-12T01:11:50.911Z,3.44444444444
2018-12-12T01:12:03.346Z,3.5
2018-12-12T01:12:15.721Z,3.5
2018-12-12T01:12:28.120Z,3.5
2018-12-12T01:12:40.485Z,3.5
2018-12-12T01:12:52.850Z,3.44444444444
2018-12-12T01:13:05.376Z,3.44444444444
2018-12-12T01:13:17.755Z,3.5
2018-12-12T01:13:30.116Z,3.44444444444
2018-12-12T01:13:42.513Z,3.5
2018-12-12T01:13:54.865Z,3.44444444444
2018-12-12T01:14:07.262Z,3.5
2018-12-12T01:14:19.645Z,3.44444444444
2018-12-12T01:14:32.026Z,3.44444444444
2018-12-12T01:14:44.391Z,3.5
2018-12-12T01:14:56.749Z,3.5
2018-12-12T01:15:09.364Z,3.5
2018-12-12T01:15:21.715Z,3.5
2018-12-12T01:15:34.086Z,3.44444444444
2018-12-12T01:15:46.455Z,3.44444444444
2018-12-12T01:15:58.837Z,3.5
2018-12-12T01:16:11.180Z,3.5
2018-12-12T01:16:23.582Z,3.5
2018-12-12T01:16:35.935Z,3.5
2018-12-12T01:16:48.309Z,3.44444444444
2018-12-12T01:17:00.664Z,3.5
2018-12-12T01:17:13.041Z,3.5
2018-12-12T01:17:25.412Z,3.44444444444
2018-12-12T01:17:37.782Z,3.44444444444
2018-12-12T01:17:50.161Z,3.5
2018-12-12T01:18:02.846Z,3.44444444444
2018-12-12T01:18:15.214Z,3.44444444444
2018-12-12T01:18:27.581Z,3.5
2018-12-12T01:18:39.975Z,3.5
2018-12-12T01:18:52.501Z,3.44444444444
2018-12-12T01:19:04.870Z,3.5
2018-12-12T01:19:17.222Z,3.5
2018-12-12T01:19:29.584Z,3.5
2018-12-12T01:19:41.957Z,3.5
2018-12-12T01:19:54.331Z,3.5
2018-12-12T01:20:06.713Z,3.5
2018-12-12T01:20:19.079Z,3.44444444444
2018-12-12T01:20:31.436Z,3.5
2018-12-12T01:20:43.834Z,3.5
2018-12-12T01:20:56.178Z,3.44444444444
2018-12-12T01:21:08.542Z,3.5
2018-12-12T01:21:20.910Z,3.5
2018-12-12T01:21:33.355Z,3.5
2018-12-12T01:21:45.720Z,3.44444444444
2018-12-12T01:21:58.224Z,3.5
2018-12-12T01:22:10.608Z,3.5
2018-12-12T01:22:22.971Z,3.5
2018-12-12T01:22:35.618Z,3.5
2018-12-12T01:22:47.997Z,3.5
2018-12-12T01:23:00.360Z,3.5
2018-12-12T01:23:12.761Z,3.5
2018-12-12T01:23:25.130Z,3.5
2018-12-12T01:23:37.493Z,3.5
2018-12-12T01:23:49.868Z,3.5
2018-12-12T01:24:02.236Z,3.5
2018-12-12T01:24:14.707Z,3.5
2018-12-12T01:24:27.186Z,3.5
2018-12-12T01:24:39.680Z,3.5
2018-12-12T01:24:52.042Z,3.5
2018-12-12T01:25:04.402Z,3.5
2018-12-12T01:25:16.828Z,3.5
2018-12-12T01:25:29.179Z,3.5
2018-12-12T01:25:41.538Z,3.5
2018-12-12T01:25:53.897Z,3.5
2018-12-12T01:26:06.253Z,3.5
2018-12-12T01:26:18.640Z,3.5
2018-12-12T01:26:31.142Z,3.5
2018-12-12T01:26:43.493Z,3.5
2018-12-12T01:26:55.874Z,3.5
2018-12-12T01:27:08.299Z,3.5
2018-12-12T01:27:20.667Z,3.5
2018-12-12T01:27:33.010Z,3.5
2018-12-12T01:27:45.372Z,3.5
2018-12-12T01:27:57.730Z,3.5
2018-12-12T01:28:10.090Z,3.5
2018-12-12T01:28:22.459Z,3.5
2018-12-12T01:28:34.821Z,3.5
2018-12-12T01:28:47.190Z,3.5
2018-12-12T01:28:59.558Z,3.5
2018-12-12T01:29:11.927Z,3.5
2018-12-12T01:29:24.294Z,3.5
2018-12-12T01:29:36.650Z,3.5
2018-12-12T01:29:49.209Z,3.5
2018-12-12T01:30:01.573Z,3.55555555556
2018-12-12T01:30:14.012Z,3.55555555556
2018-12-12T01:30:26.424Z,3.55555555556
2018-12-12T01:30:39.151Z,3.5
2018-12-12T01:30:51.507Z,3.55555555556
2018-12-12T01:31:03.889Z,3.5
2018-12-12T01:31:16.234Z,3.5
2018-12-12T01:31:28.604Z,3.55555555556
2018-12-12T01:31:40.977Z,3.55555555556
2018-12-12T01:31:53.335Z,3.5
2018-12-12T01:32:05.702Z,3.55555555556
2018-12-12T01:32:18.221Z,3.55555555556
2018-12-12T01:32:30.600Z,3.55555555556
2018-12-12T01:32:42.967Z,3.55555555556
2018-12-12T01:32:55.395Z,3.5
2018-12-12T01:33:07.816Z,3.55555555556
2018-12-12T01:33:20.193Z,3.55555555556
2018-12-12T01:33:32.567Z,3.55555555556
2018-12-12T01:33:44.941Z,3.55555555556
2018-12-12T01:33:57.326Z,3.55555555556
2018-12-12T01:34:09.687Z,3.55555555556
2018-12-12T01:34:22.068Z,3.55555555556
2018-12-12T01:34:34.441Z,3.5
2018-12-12T01:34:46.800Z,3.55555555556
2018-12-12T01:34:59.207Z,3.55555555556
2018-12-12T01:35:11.593Z,3.55555555556
2018-12-12T01:35:23.981Z,3.55555555556
2018-12-12T01:35:36.338Z,3.5
2018-12-12T01:35:48.775Z,3.55555555556
2018-12-12T01:36:01.152Z,3.5
2018-12-12T01:36:13.512Z,3.5
2018-12-12T01:36:25.896Z,3.55555555556
2018-12-12T01:36:38.296Z,3.5
2018-12-12T01:36:50.671Z,3.55555555556
2018-12-12T01:37:03.031Z,3.5
2018-12-12T01:37:15.555Z,3.5
2018-12-12T01:37:27.895Z,3.55555555556
2018-12-12T01:37:40.251Z,3.55555555556
2018-12-12T01:37:52.615Z,3.55555555556
2018-12-12T01:38:04.997Z,3.55555555556
2018-12-12T01:38:17.365Z,3.55555555556
2018-12-12T01:38:29.732Z,3.55555555556
2018-12-12T01:38:42.113Z,3.55555555556
2018-12-12T01:38:54.473Z,3.55555555556
2018-12-12T01:39:06.839Z,3.55555555556
2018-12-12T01:39:19.205Z,3.55555555556
2018-12-12T01:39:31.558Z,3.55555555556
2018-12-12T01:39:44.120Z,3.55555555556
2018-12-12T01:39:56.495Z,3.55555555556
2018-12-12T01:40:08.847Z,3.55555555556
2018-12-12T01:40:21.221Z,3.55555555556
2018-12-12T01:40:33.651Z,3.55555555556
2018-12-12T01:40:46.017Z,3.55555555556
2018-12-12T01:40:58.727Z,3.55555555556
2018-12-12T01:41:11.318Z,3.55555555556
2018-12-12T01:41:23.669Z,3.55555555556
2018-12-12T01:41:36.047Z,3.55555555556
2018-12-12T01:41:48.407Z,3.55555555556
2018-12-12T01:42:00.834Z,3.55555555556
2018-12-12T01:42:13.337Z,3.55555555556
2018-12-12T01:42:25.682Z,3.55555555556
2018-12-12T01:42:38.031Z,3.55555555556
2018-12-12T01:42:50.400Z,3.55555555556
2018-12-12T01:43:02.770Z,3.55555555556
2018-12-12T01:43:15.140Z,3.55555555556
2018-12-12T01:43:27.526Z,3.55555555556
2018-12-12T01:43:39.979Z,3.55555555556
2018-12-12T01:43:52.440Z,3.55555555556
2018-12-12T01:44:04.931Z,3.55555555556
2018-12-12T01:44:17.286Z,3.55555555556
2018-12-12T01:44:29.782Z,3.55555555556
2018-12-12T01:44:42.213Z,3.55555555556
2018-12-12T01:44:54.589Z,3.55555555556
2018-12-12T01:45:06.958Z,3.55555555556
2018-12-12T01:45:19.383Z,3.55555555556
2018-12-12T01:45:31.759Z,3.55555555556
2018-12-12T01:45:44.148Z,3.55555555556
2018-12-12T01:45:56.562Z,3.55555555556
2018-12-12T01:46:09.018Z,3.55555555556
2018-12-12T01:46:21.389Z,3.55555555556
2018-12-12T01:46:33.763Z,3.55555555556
2018-12-12T01:46:46.124Z,3.55555555556
2018-12-12T01:46:58.495Z,3.55555555556
2018-12-12T01:47:10.849Z,3.55555555556
2018-12-12T01:47:23.219Z,3.55555555556
2018-12-12T01:47:35.590Z,3.55555555556
2018-12-12T01:47:47.974Z,3.55555555556
2018-12-12T01:48:00.356Z,3.55555555556
2018-12-12T01:48:12.711Z,3.55555555556
2018-12-12T01:48:25.091Z,3.55555555556
2018-12-12T01:48:37.518Z,3.55555555556
2018-12-12T01:48:49.873Z,3.55555555556
2018-12-12T01:49:02.235Z,3.55555555556
2018-12-12T01:49:14.668Z,3.55555555556
2018-12-12T01:49:27.033Z,3.55555555556
2018-12-12T01:49:39.407Z,3.55555555556
2018-12-12T01:49:51.765Z,3.55555555556
2018-12-12T01:50:04.380Z,3.55555555556
2018-12-12T01:50:16.758Z,3.55555555556
2018-12-12T01:50:29.164Z,3.55555555556
2018-12-12T01:50:41.545Z,3.55555555556
2018-12-12T01:50:54.108Z,3.55555555556
2018-12-12T01:51:06.485Z,3.55555555556
2018-12-12T01:51:18.852Z,3.55555555556
2018-12-12T01:51:31.218Z,3.55555555556
2018-12-12T01:51:43.590Z,3.55555555556
2018-12-12T01:51:55.956Z,3.55555555556
2018-12-12T01:52:08.401Z,3.55555555556
2018-12-12T01:52:20.758Z,3.55555555556
2018-12-12T01:52:33.257Z,3.55555555556
2018-12-12T01:52:45.615Z,3.61111111111
2018-12-12T01:52:57.974Z,3.61111111111
2018-12-12T01:53:10.328Z,3.61111111111
2018-12-12T01:53:22.687Z,3.61111111111
2018-12-12T01:53:36.491Z,3.55555555556
2018-12-12T01:53:48.927Z,3.55555555556
2018-12-12T01:54:01.286Z,3.61111111111
2018-12-12T01:54:13.883Z,3.55555555556
2018-12-12T01:54:26.286Z,3.61111111111
2018-12-12T01:54:38.645Z,3.61111111111
2018-12-12T01:54:51.035Z,3.55555555556
2018-12-12T01:55:03.556Z,3.55555555556
2018-12-12T01:55:15.905Z,3.55555555556
2018-12-12T01:55:28.262Z,3.55555555556
2018-12-12T01:55:40.629Z,3.55555555556
2018-12-12T01:55:53.113Z,3.61111111111
2018-12-12T01:56:05.475Z,3.55555555556
2018-12-12T01:56:17.825Z,3.61111111111
2018-12-12T01:56:30.203Z,3.61111111111
2018-12-12T01:56:42.652Z,3.55555555556
2018-12-12T01:56:55.027Z,3.61111111111
2018-12-12T01:57:07.423Z,3.61111111111
2018-12-12T01:57:19.819Z,3.61111111111
2018-12-12T01:57:32.235Z,3.61111111111
2018-12-12T01:57:44.608Z,3.61111111111
2018-12-12T01:57:56.986Z,3.61111111111
2018-12-12T01:58:09.376Z,3.61111111111
2018-12-12T01:58:22.170Z,3.61111111111
2018-12-12T01:58:34.557Z,3.61111111111
2018-12-12T01:58:46.931Z,3.61111111111
2018-12-12T01:58:59.307Z,3.61111111111
2018-12-12T01:59:11.691Z,3.61111111111
2018-12-12T01:59:24.049Z,3.61111111111
2018-12-12T01:59:36.479Z,3.61111111111
2018-12-12T01:59:48.858Z,3.61111111111
2018-12-12T02:00:01.276Z,3.61111111111
2018-12-12T02:00:13.656Z,3.61111111111
2018-12-12T02:00:26.048Z,3.61111111111
2018-12-12T02:00:38.432Z,3.61111111111
2018-12-12T02:00:50.810Z,3.61111111111
2018-12-12T02:01:03.190Z,3.61111111111
2018-12-12T02:01:15.545Z,3.61111111111
2018-12-12T02:01:27.932Z,3.61111111111
2018-12-12T02:01:40.293Z,3.61111111111
2018-12-12T02:01:52.767Z,3.61111111111
2018-12-12T02:02:05.135Z,3.61111111111
2018-12-12T02:02:17.519Z,3.61111111111
2018-12-12T02:02:29.904Z,3.61111111111
2018-12-12T02:02:42.339Z,3.61111111111
2018-12-12T02:02:54.723Z,3.61111111111
2018-12-12T02:03:07.101Z,3.61111111111
2018-12-12T02:03:19.493Z,3.61111111111
2018-12-12T02:03:31.871Z,3.61111111111
2018-12-12T02:03:44.241Z,3.61111111111
2018-12-12T02:03:56.606Z,3.61111111111
2018-12-12T02:04:08.986Z,3.61111111111
2018-12-12T02:04:21.358Z,3.61111111111
2018-12-12T02:04:33.725Z,3.61111111111
2018-12-12T02:04:46.105Z,3.61111111111
2018-12-12T02:04:58.475Z,3.61111111111
2018-12-12T02:05:10.861Z,3.61111111111
2018-12-12T02:05:24.391Z,3.61111111111
2018-12-12T02:05:36.830Z,3.61111111111
2018-12-12T02:05:49.203Z,3.61111111111
2018-12-12T02:06:01.573Z,3.66666666667
2018-12-12T02:06:13.950Z,3.66666666667
2018-12-12T02:06:26.318Z,3.61111111111
2018-12-12T02:06:38.678Z,3.61111111111
2018-12-12T02:06:51.167Z,3.61111111111
2018-12-12T02:07:03.526Z,3.61111111111
2018-12-12T02:07:15.893Z,3.66666666667
2018-12-12T02:07:28.266Z,3.61111111111
2018-12-12T02:07:40.620Z,3.66666666667
2018-12-12T02:07:52.992Z,3.61111111111
2018-12-12T02:08:05.430Z,3.66666666667
2018-12-12T02:08:17.834Z,3.61111111111
2018-12-12T02:08:30.215Z,3.61111111111
2018-12-12T02:08:42.571Z,3.66666666667
2018-12-12T02:08:56.353Z,3.66666666667
2018-12-12T02:09:08.739Z,3.66666666667
2018-12-12T02:09:21.126Z,3.66666666667
2018-12-12T02:09:33.504Z,3.61111111111
2018-12-12T02:09:45.874Z,3.66666666667
2018-12-12T02:09:58.364Z,3.66666666667
2018-12-12T02:10:10.720Z,3.61111111111
2018-12-12T02:10:23.110Z,3.61111111111
2018-12-12T02:10:35.470Z,3.66666666667
2018-12-12T02:10:47.904Z,3.66666666667
2018-12-12T02:11:00.268Z,3.66666666667
2018-12-12T02:11:12.637Z,3.66666666667
2018-12-12T02:11:24.994Z,3.66666666667
2018-12-12T02:11:37.381Z,3.66666666667